Time;durP1;ratioP1;P1;durP2;ratioP2;P2;SDS_P1;SDS_P2;PMS_P1;PMS_P2;Temp;Humidity;BMP_temperature;BMP_pressure;BME280_temperature;BME280_humidity;BME280_pressure;Samples;Min_cycle;Max_cycle;Signal;HPM_P1;HPM_P2
2023/12/12 00:02:14;;;;;;;73.50;25.83;;;5.80;99.90;;;;;;5086718;28;20242;-63
2023/12/12 00:04:41;;;;;;;40.53;22.90;;;5.80;99.90;;;;;;5085837;28;20211;-63
2023/12/12 00:07:09;;;;;;;48.47;23.43;;;5.70;99.90;;;;;;5082276;28;20244;-63
2023/12/12 00:09:36;;;;;;;72.90;25.97;;;5.70;99.90;;;;;;5081876;28;20242;-64
2023/12/12 00:12:03;;;;;;;53.13;24.43;;;5.70;99.90;;;;;;5078419;28;20200;-63
2023/12/12 00:14:30;;;;;;;53.13;23.50;;;5.60;99.90;;;;;;5079734;28;20198;-63
2023/12/12 00:16:57;;;;;;;76.83;23.40;;;5.60;99.90;;;;;;5082471;28;20197;-63
2023/12/12 00:19:24;;;;;;;40.13;21.63;;;5.60;99.90;;;;;;5082147;28;20622;-63
2023/12/12 00:21:51;;;;;;;41.17;22.83;;;5.60;99.90;;;;;;5085578;28;20720;-63
2023/12/12 00:24:18;;;;;;;62.97;22.67;;;5.60;99.90;;;;;;5081139;28;20206;-64
2023/12/12 00:26:45;;;;;;;56.00;21.23;;;5.50;99.90;;;;;;5084061;28;20534;-64
2023/12/12 00:29:12;;;;;;;37.07;23.60;;;5.50;99.90;;;;;;5082437;28;20241;-63
2023/12/12 00:31:39;;;;;;;44.50;21.80;;;5.50;99.90;;;;;;5082636;28;20240;-64
2023/12/12 00:34:06;;;;;;;62.87;22.73;;;5.40;99.90;;;;;;5081464;28;20216;-63
2023/12/12 00:36:33;;;;;;;75.63;24.50;;;5.50;99.90;;;;;;5076733;28;20334;-64
2023/12/12 00:39:00;;;;;;;51.83;23.07;;;5.40;99.90;;;;;;5076942;28;20201;-63
2023/12/12 00:41:34;;;;;;;48.03;24.27;;;5.40;99.90;;;;;;5084306;28;20619;-63
2023/12/12 00:44:01;;;;;;;51.07;23.47;;;5.40;99.90;;;;;;5078841;28;20206;-63
2023/12/12 00:46:29;;;;;;;55.57;24.90;;;5.30;99.90;;;;;;5082933;28;20217;-62
2023/12/12 00:48:56;;;;;;;51.43;24.20;;;5.30;99.90;;;;;;5081205;28;20220;-63
2023/12/12 00:51:23;;;;;;;71.53;25.50;;;5.30;99.90;;;;;;5080335;28;20694;-63
2023/12/12 00:53:50;;;;;;;56.20;23.63;;;5.40;99.90;;;;;;5084196;28;20211;-63
2023/12/12 00:56:17;;;;;;;52.50;25.77;;;5.30;99.90;;;;;;5083979;28;20672;-63
2023/12/12 00:58:44;;;;;;;81.53;27.43;;;5.30;99.90;;;;;;5076958;28;20657;-63
2023/12/12 01:01:13;;;;;;;76.83;27.03;;;5.30;99.90;;;;;;5084446;28;20237;-63
2023/12/12 01:03:41;;;;;;;45.50;24.53;;;5.30;99.90;;;;;;5086640;28;20203;-63
2023/12/12 01:06:08;;;;;;;62.67;25.17;;;5.30;99.90;;;;;;5089491;28;20338;-63
2023/12/12 01:08:35;;;;;;;44.60;25.60;;;5.30;99.90;;;;;;5085615;28;20207;-63
2023/12/12 01:11:02;;;;;;;64.17;24.67;;;5.30;99.90;;;;;;5083282;28;20210;-63
2023/12/12 01:13:29;;;;;;;77.63;24.73;;;5.30;99.90;;;;;;5083824;28;20190;-63
2023/12/12 01:15:57;;;;;;;51.10;24.13;;;5.30;99.90;;;;;;5081161;28;20258;-63
2023/12/12 01:18:24;;;;;;;57.30;24.53;;;5.30;99.90;;;;;;5083033;28;20205;-63
2023/12/12 01:20:51;;;;;;;50.43;24.00;;;5.30;99.90;;;;;;5090866;28;20269;-63
2023/12/12 01:23:18;;;;;;;44.87;23.73;;;5.20;99.90;;;;;;5085309;28;20276;-64
2023/12/12 01:25:45;;;;;;;51.63;25.70;;;5.20;99.90;;;;;;5079547;28;20230;-63
2023/12/12 01:28:12;;;;;;;55.00;25.63;;;5.30;99.90;;;;;;5087447;28;20292;-63
2023/12/12 01:30:39;;;;;;;51.77;24.77;;;5.30;99.90;;;;;;5082163;28;20221;-63
2023/12/12 01:33:06;;;;;;;43.50;26.37;;;5.20;99.90;;;;;;5083937;28;20193;-63
2023/12/12 01:35:33;;;;;;;268.33;31.37;;;5.20;99.90;;;;;;5079752;28;20202;-63
2023/12/12 01:38:00;;;;;;;62.47;24.17;;;5.20;99.90;;;;;;5079574;28;20654;-63
2023/12/12 01:40:27;;;;;;;308.73;29.83;;;5.20;99.90;;;;;;5082412;28;20198;-63
2023/12/12 01:43:05;;;;;;;248.50;29.83;;;5.10;99.90;;;;;;5084202;28;20682;-63
2023/12/12 01:45:32;;;;;;;89.50;24.03;;;5.10;99.90;;;;;;5089576;28;20631;-63
2023/12/12 01:47:59;;;;;;;57.67;23.70;;;5.10;99.90;;;;;;5081260;28;20201;-63
2023/12/12 01:50:26;;;;;;;55.77;23.97;;;5.00;99.90;;;;;;5090696;28;20698;-63
2023/12/12 01:52:54;;;;;;;205.73;29.40;;;5.00;99.90;;;;;;5084048;28;20193;-63
2023/12/12 01:55:21;;;;;;;65.63;24.43;;;5.00;99.90;;;;;;5086227;28;20201;-63
2023/12/12 01:57:48;;;;;;;58.07;24.53;;;5.00;99.90;;;;;;5085078;28;20200;-63
2023/12/12 02:00:16;;;;;;;88.23;24.53;;;5.00;99.90;;;;;;5081931;28;20240;-63
2023/12/12 02:02:43;;;;;;;53.27;23.83;;;5.00;99.90;;;;;;5083388;28;20626;-63
2023/12/12 02:05:10;;;;;;;77.37;26.27;;;5.00;99.90;;;;;;5084031;28;20536;-63
2023/12/12 02:07:38;;;;;;;41.30;23.03;;;5.00;99.90;;;;;;5078427;28;20589;-63
2023/12/12 02:10:06;;;;;;;71.80;25.33;;;5.00;99.90;;;;;;5084514;28;20216;-63
2023/12/12 02:12:33;;;;;;;91.53;24.10;;;5.00;99.90;;;;;;5080560;28;20247;-63
2023/12/12 02:15:00;;;;;;;85.13;23.53;;;5.00;99.90;;;;;;5082066;28;20194;-63
2023/12/12 02:17:27;;;;;;;204.80;25.53;;;5.00;99.90;;;;;;5082200;28;20186;-63
2023/12/12 02:19:56;;;;;;;96.47;23.33;;;5.00;99.90;;;;;;5085837;28;20535;-63
2023/12/12 02:22:23;;;;;;;79.23;21.83;;;5.00;99.90;;;;;;5086496;28;20201;-63
2023/12/12 02:24:51;;;;;;;58.63;21.57;;;5.00;99.90;;;;;;5087824;28;20639;-63
2023/12/12 02:27:18;;;;;;;69.90;22.83;;;4.90;99.90;;;;;;5079784;28;20182;-64
2023/12/12 02:29:45;;;;;;;103.27;24.77;;;4.80;99.90;;;;;;5077164;28;20244;-62
2023/12/12 02:32:12;;;;;;;57.23;22.23;;;4.80;99.90;;;;;;5083596;28;20219;-63
2023/12/12 02:34:40;;;;;;;95.07;22.70;;;4.80;99.90;;;;;;5082196;28;20203;-63
2023/12/12 02:37:07;;;;;;;167.00;25.73;;;4.80;99.90;;;;;;5081894;28;20206;-63
2023/12/12 02:39:34;;;;;;;99.63;23.33;;;4.80;99.90;;;;;;5079418;28;20214;-63
2023/12/12 02:42:01;;;;;;;77.43;22.60;;;4.70;99.90;;;;;;5083850;28;20200;-63
2023/12/12 02:44:28;;;;;;;110.93;27.33;;;4.70;99.90;;;;;;5081644;28;20266;-63
2023/12/12 02:46:56;;;;;;;137.60;26.23;;;4.70;99.90;;;;;;5081863;28;20219;-63
2023/12/12 02:49:23;;;;;;;214.13;29.13;;;4.70;99.90;;;;;;5079195;28;20203;-63
2023/12/12 02:51:50;;;;;;;247.07;27.30;;;4.70;99.90;;;;;;5081938;28;20651;-63
2023/12/12 02:54:17;;;;;;;284.23;28.10;;;4.60;99.90;;;;;;5084868;28;20546;-63
2023/12/12 02:56:44;;;;;;;70.20;23.47;;;4.60;99.90;;;;;;5080688;28;20512;-63
2023/12/12 02:59:11;;;;;;;70.33;23.33;;;4.60;99.90;;;;;;5081532;28;20254;-63
2023/12/12 03:01:38;;;;;;;60.43;22.13;;;4.60;99.90;;;;;;5081404;28;20572;-63
2023/12/12 03:04:05;;;;;;;94.47;22.33;;;4.60;99.90;;;;;;5084434;28;20679;-63
2023/12/12 03:06:32;;;;;;;155.27;26.73;;;4.50;99.90;;;;;;5083681;28;20265;-63
2023/12/12 03:08:59;;;;;;;90.63;22.50;;;4.50;99.90;;;;;;5079672;28;20267;-63
2023/12/12 03:11:26;;;;;;;86.80;22.57;;;4.50;99.90;;;;;;5082293;28;20305;-63
2023/12/12 03:13:54;;;;;;;74.93;23.30;;;4.50;99.90;;;;;;5080417;28;20504;-63
2023/12/12 03:16:21;;;;;;;92.80;25.23;;;4.50;99.90;;;;;;5083638;28;20215;-63
2023/12/12 03:18:48;;;;;;;145.87;24.77;;;4.40;99.90;;;;;;5089292;28;20205;-63
2023/12/12 03:21:15;;;;;;;63.27;22.40;;;4.40;99.90;;;;;;5085181;28;20269;-63
2023/12/12 03:23:42;;;;;;;66.03;23.77;;;4.40;99.90;;;;;;5084163;28;20643;-63
2023/12/12 03:26:11;;;;;;;87.43;23.37;;;4.40;99.90;;;;;;5080908;28;20211;-63
2023/12/12 03:28:38;;;;;;;52.70;19.97;;;4.30;99.90;;;;;;5080244;28;20308;-63
2023/12/12 03:31:06;;;;;;;71.03;22.30;;;4.30;99.90;;;;;;5080454;28;20220;-63
2023/12/12 03:33:33;;;;;;;64.50;21.60;;;4.30;99.90;;;;;;5079877;28;20193;-63
2023/12/12 03:36:00;;;;;;;67.60;22.47;;;4.30;99.90;;;;;;5084019;28;20281;-63
2023/12/12 03:38:27;;;;;;;84.37;20.93;;;4.30;99.90;;;;;;5082674;28;20641;-63
2023/12/12 03:40:54;;;;;;;66.67;22.10;;;4.30;99.90;;;;;;5083303;28;20200;-63
2023/12/12 03:43:21;;;;;;;72.77;23.87;;;4.30;99.90;;;;;;5085693;28;20284;-63
2023/12/12 03:45:48;;;;;;;80.93;23.50;;;4.30;99.90;;;;;;5085132;28;20212;-63
2023/12/12 03:48:15;;;;;;;48.50;21.53;;;4.30;99.90;;;;;;5080070;28;20205;-63
2023/12/12 03:50:42;;;;;;;65.63;23.40;;;4.30;99.90;;;;;;5076678;28;20252;-62
2023/12/12 03:53:09;;;;;;;93.97;23.33;;;4.40;99.90;;;;;;5082566;28;20197;-62
2023/12/12 03:55:36;;;;;;;51.17;23.10;;;4.40;99.90;;;;;;5077893;28;20201;-63
2023/12/12 03:58:03;;;;;;;57.67;22.47;;;4.40;99.90;;;;;;5081702;28;20205;-64
2023/12/12 04:00:31;;;;;;;52.00;24.70;;;4.40;99.90;;;;;;5077611;28;20225;-63
2023/12/12 04:02:58;;;;;;;57.43;25.10;;;4.50;99.90;;;;;;5077823;28;20623;-64
2023/12/12 04:05:25;;;;;;;55.10;24.73;;;4.50;99.90;;;;;;5082169;28;20201;-63
2023/12/12 04:07:53;;;;;;;39.53;23.73;;;4.60;99.90;;;;;;5082260;28;20311;-64
2023/12/12 04:10:20;;;;;;;37.63;23.10;;;4.60;99.90;;;;;;5085399;28;20261;-63
2023/12/12 04:12:48;;;;;;;47.10;24.60;;;4.60;99.90;;;;;;5087207;28;20205;-63
2023/12/12 04:15:15;;;;;;;46.47;25.17;;;4.70;99.90;;;;;;5077200;28;20285;-63
2023/12/12 04:17:42;;;;;;;38.70;22.67;;;4.70;99.90;;;;;;5086914;28;20200;-63
2023/12/12 04:20:10;;;;;;;40.50;23.73;;;4.70;99.90;;;;;;5082403;28;20221;-63
2023/12/12 04:22:37;;;;;;;42.00;25.37;;;4.70;99.90;;;;;;5081104;28;20201;-63
2023/12/12 04:25:05;;;;;;;40.33;25.73;;;4.70;99.90;;;;;;5083532;28;20202;-63
2023/12/12 04:27:32;;;;;;;41.97;24.17;;;4.80;99.90;;;;;;5082737;28;20209;-63
2023/12/12 04:29:59;;;;;;;41.70;24.20;;;4.80;99.90;;;;;;5079564;28;20684;-63
2023/12/12 04:32:26;;;;;;;39.23;24.17;;;4.80;99.90;;;;;;5078485;28;20216;-64
2023/12/12 04:34:53;;;;;;;40.57;24.67;;;4.80;99.90;;;;;;5084927;28;20210;-63
2023/12/12 04:37:20;;;;;;;40.47;23.67;;;4.80;99.90;;;;;;5080441;28;20198;-63
2023/12/12 04:39:48;;;;;;;39.33;23.03;;;4.90;99.90;;;;;;5084640;28;20197;-63
2023/12/12 04:42:15;;;;;;;48.27;26.30;;;4.90;99.90;;;;;;5083040;28;20307;-63
2023/12/12 04:44:42;;;;;;;50.90;27.17;;;4.90;99.90;;;;;;5082741;28;20279;-63
2023/12/12 04:47:10;;;;;;;45.30;26.53;;;4.90;99.90;;;;;;5079893;28;20201;-63
2023/12/12 04:49:37;;;;;;;48.73;27.13;;;4.90;99.90;;;;;;5087946;28;20229;-63
2023/12/12 04:52:04;;;;;;;51.80;27.83;;;4.90;99.90;;;;;;5083284;28;20210;-62
2023/12/12 04:54:31;;;;;;;55.37;28.97;;;5.00;99.90;;;;;;5082462;28;20316;-63
2023/12/12 04:56:59;;;;;;;48.13;27.80;;;5.00;99.90;;;;;;5082901;28;20514;-63
2023/12/12 04:59:26;;;;;;;52.27;29.03;;;5.00;99.90;;;;;;5089125;28;20250;-63
2023/12/12 05:01:53;;;;;;;49.50;27.63;;;5.00;99.90;;;;;;5084302;28;20272;-63
2023/12/12 05:04:21;;;;;;;45.43;26.57;;;5.10;99.90;;;;;;5085438;28;20193;-63
2023/12/12 05:06:48;;;;;;;41.67;24.90;;;5.10;99.90;;;;;;5080314;28;20229;-64
2023/12/12 05:09:15;;;;;;;33.90;24.40;;;5.10;99.90;;;;;;5084521;28;20229;-63
2023/12/12 05:11:43;;;;;;;37.53;24.20;;;5.10;99.90;;;;;;5083015;28;20543;-63
2023/12/12 05:14:10;;;;;;;30.73;22.03;;;5.10;99.90;;;;;;5087382;28;20714;-63
2023/12/12 05:16:37;;;;;;;31.53;22.50;;;5.20;99.90;;;;;;5083520;28;20200;-63
2023/12/12 05:19:05;;;;;;;31.50;23.47;;;5.20;99.90;;;;;;5083858;28;20204;-63
2023/12/12 05:21:32;;;;;;;33.13;24.43;;;5.10;99.90;;;;;;5084200;28;20259;-63
2023/12/12 05:23:59;;;;;;;32.27;23.80;;;5.10;99.90;;;;;;5085961;28;20714;-63
2023/12/12 05:26:27;;;;;;;33.70;22.13;;;5.20;99.90;;;;;;5087669;28;20266;-63
2023/12/12 05:28:54;;;;;;;31.17;22.90;;;5.20;99.90;;;;;;5083816;28;20205;-63
2023/12/12 05:31:24;;;;;;;36.30;23.83;;;5.20;99.90;;;;;;5081912;28;20274;-63
2023/12/12 05:33:51;;;;;;;40.27;26.20;;;5.20;99.90;;;;;;5088068;28;20197;-63
2023/12/12 05:36:18;;;;;;;43.30;26.73;;;5.20;99.90;;;;;;5083626;28;20197;-63
2023/12/12 05:38:46;;;;;;;41.00;27.30;;;5.20;99.90;;;;;;5086183;28;20526;-63
2023/12/12 05:41:14;;;;;;;46.40;29.60;;;5.30;99.90;;;;;;5084817;28;20654;-64
2023/12/12 05:43:41;;;;;;;43.73;28.00;;;5.20;99.90;;;;;;5077495;28;20194;-63
2023/12/12 05:46:10;;;;;;;42.73;27.83;;;5.30;99.90;;;;;;5080454;28;20209;-63
2023/12/12 05:48:37;;;;;;;41.27;27.47;;;5.30;99.90;;;;;;5079211;28;20209;-63
2023/12/12 05:51:04;;;;;;;43.33;26.73;;;5.30;99.90;;;;;;5084237;28;20214;-63
2023/12/12 05:53:31;;;;;;;40.37;27.13;;;5.40;99.90;;;;;;5085338;28;20523;-63
2023/12/12 05:55:58;;;;;;;39.43;25.60;;;5.30;99.90;;;;;;5079722;28;20216;-63
2023/12/12 05:58:25;;;;;;;42.93;26.40;;;5.40;99.90;;;;;;5082385;28;20197;-63
2023/12/12 06:00:53;;;;;;;40.43;26.53;;;5.40;99.90;;;;;;5081492;28;20375;-63
2023/12/12 06:03:20;;;;;;;37.80;25.03;;;5.40;99.90;;;;;;5087314;28;20198;-63
2023/12/12 06:05:48;;;;;;;43.07;26.77;;;5.40;99.90;;;;;;5084989;28;20217;-63
2023/12/12 06:08:16;;;;;;;37.77;25.53;;;5.40;99.90;;;;;;5085167;28;20197;-63
2023/12/12 06:10:43;;;;;;;35.70;25.13;;;5.40;99.90;;;;;;5083706;28;20190;-63
2023/12/12 06:13:10;;;;;;;34.23;25.20;;;5.40;99.90;;;;;;5084840;28;20216;-63
2023/12/12 06:15:37;;;;;;;36.50;24.37;;;5.40;99.90;;;;;;5083944;28;20284;-63
2023/12/12 06:18:06;;;;;;;34.80;24.83;;;5.40;99.90;;;;;;5085774;28;20211;-63
2023/12/12 06:20:35;;;;;;;34.80;25.43;;;5.40;99.90;;;;;;5079590;28;20193;-63
2023/12/12 06:23:02;;;;;;;37.37;24.93;;;5.40;99.90;;;;;;5083427;28;20198;-63
2023/12/12 06:25:29;;;;;;;38.73;24.93;;;5.40;99.90;;;;;;5083630;28;20206;-63
2023/12/12 06:27:57;;;;;;;39.40;26.00;;;5.40;99.90;;;;;;5080538;28;20217;-63
2023/12/12 06:30:24;;;;;;;35.67;24.83;;;5.40;99.90;;;;;;5083586;28;20260;-63
2023/12/12 06:32:51;;;;;;;37.13;24.70;;;5.40;99.90;;;;;;5079024;28;20639;-64
2023/12/12 06:35:18;;;;;;;33.20;24.80;;;5.50;99.90;;;;;;5081096;28;20223;-63
2023/12/12 06:37:46;;;;;;;39.27;25.50;;;5.50;99.90;;;;;;5085514;28;20199;-62
2023/12/12 06:40:13;;;;;;;35.63;25.33;;;5.50;99.90;;;;;;5081599;28;20659;-63
2023/12/12 06:42:43;;;;;;;35.77;24.77;;;5.50;99.90;;;;;;5082726;28;20202;-63
2023/12/12 06:45:10;;;;;;;37.63;26.13;;;5.50;99.90;;;;;;5084640;28;20205;-63
2023/12/12 06:47:37;;;;;;;38.27;25.80;;;5.50;99.90;;;;;;5083369;28;20204;-63
2023/12/12 06:50:05;;;;;;;41.03;25.73;;;5.60;99.90;;;;;;5085300;28;20212;-64
2023/12/12 06:52:33;;;;;;;35.00;24.97;;;5.50;99.90;;;;;;5088148;28;20212;-63
2023/12/12 06:55:00;;;;;;;36.10;23.73;;;5.50;99.90;;;;;;5082656;28;20674;-63
2023/12/12 06:57:27;;;;;;;40.67;24.73;;;5.50;99.90;;;;;;5079530;28;20232;-63
2023/12/12 06:59:54;;;;;;;35.63;24.47;;;5.50;99.90;;;;;;5078438;28;20641;-63
2023/12/12 07:02:21;;;;;;;37.13;25.70;;;5.50;99.90;;;;;;5083783;28;20221;-63
2023/12/12 07:04:48;;;;;;;33.33;24.10;;;5.60;99.90;;;;;;5084143;28;20217;-63
2023/12/12 07:07:16;;;;;;;37.77;26.33;;;5.60;99.90;;;;;;5081249;28;20650;-63
2023/12/12 07:09:43;;;;;;;35.20;25.13;;;5.60;99.90;;;;;;5077955;28;20205;-63
2023/12/12 07:12:10;;;;;;;34.90;24.80;;;5.70;99.90;;;;;;5081720;28;20218;-63
2023/12/12 07:14:37;;;;;;;35.60;25.17;;;5.70;99.90;;;;;;5084337;28;20619;-64
2023/12/12 07:17:04;;;;;;;34.77;25.77;;;5.70;99.90;;;;;;5082423;28;20224;-63
2023/12/12 07:19:31;;;;;;;32.50;24.37;;;5.80;99.90;;;;;;5079702;28;20212;-63
2023/12/12 07:21:58;;;;;;;35.67;25.40;;;5.80;99.90;;;;;;5078844;28;20546;-63
2023/12/12 07:24:26;;;;;;;34.17;24.17;;;5.90;99.90;;;;;;5079686;28;20289;-63
2023/12/12 07:26:53;;;;;;;34.37;24.27;;;5.90;99.90;;;;;;5081940;28;20202;-63
2023/12/12 07:29:20;;;;;;;34.93;25.53;;;5.90;99.90;;;;;;5085889;28;20209;-63
2023/12/12 07:31:47;;;;;;;34.60;25.27;;;5.90;99.90;;;;;;5081421;28;20245;-63
2023/12/12 07:34:14;;;;;;;35.70;26.07;;;5.90;99.90;;;;;;5078575;28;20254;-63
2023/12/12 07:36:41;;;;;;;35.23;25.50;;;5.90;99.90;;;;;;5079431;28;20611;-63
2023/12/12 07:39:09;;;;;;;35.93;24.53;;;5.90;99.90;;;;;;5081919;28;20257;-63
2023/12/12 07:41:37;;;;;;;35.30;23.57;;;5.90;99.90;;;;;;5081376;28;20212;-63
2023/12/12 07:44:04;;;;;;;32.03;24.03;;;5.90;99.90;;;;;;5078270;28;20275;-63
2023/12/12 07:46:38;;;;;;;35.67;24.90;;;6.00;99.90;;;;;;5081320;28;20204;-63
2023/12/12 07:49:08;;;;;;;35.17;25.73;;;6.00;99.90;;;;;;5078032;28;20224;-63
2023/12/12 07:51:37;;;;;;;32.43;23.50;;;6.00;99.90;;;;;;5083892;28;20249;-62
2023/12/12 07:54:06;;;;;;;36.43;25.10;;;6.00;99.90;;;;;;5083264;28;20555;-63
2023/12/12 07:56:33;;;;;;;37.33;23.77;;;6.00;99.90;;;;;;5083270;28;20651;-64
2023/12/12 07:59:00;;;;;;;32.57;24.53;;;6.10;99.90;;;;;;5076965;28;20189;-63
2023/12/12 08:01:27;;;;;;;35.03;24.30;;;6.00;99.90;;;;;;5075343;28;20318;-63
2023/12/12 08:03:54;;;;;;;37.87;24.93;;;6.10;99.90;;;;;;5084494;28;20579;-63
2023/12/12 08:06:22;;;;;;;37.53;26.03;;;6.10;99.90;;;;;;5084749;28;20205;-63
2023/12/12 08:08:49;;;;;;;35.27;24.73;;;6.10;99.90;;;;;;5079023;28;20197;-63
2023/12/12 08:11:16;;;;;;;39.00;24.47;;;6.10;99.90;;;;;;5083580;28;20222;-63
2023/12/12 08:13:43;;;;;;;38.53;26.53;;;6.10;99.90;;;;;;5080443;28;20206;-63
2023/12/12 08:16:11;;;;;;;43.97;28.50;;;6.10;99.90;;;;;;5083290;28;20280;-63
2023/12/12 08:18:38;;;;;;;45.50;28.03;;;6.20;99.90;;;;;;5082803;28;20190;-63
2023/12/12 08:21:06;;;;;;;41.10;26.87;;;6.10;99.90;;;;;;5080628;28;20190;-63
2023/12/12 08:23:36;;;;;;;50.60;29.80;;;6.20;99.90;;;;;;5079308;28;20762;-63
2023/12/12 08:26:05;;;;;;;52.27;29.93;;;6.20;99.90;;;;;;5083264;28;20202;-63
2023/12/12 08:28:32;;;;;;;48.97;31.23;;;6.20;99.90;;;;;;5079679;28;20557;-63
2023/12/12 08:30:59;;;;;;;53.73;31.43;;;6.20;99.90;;;;;;5079066;28;20285;-63
2023/12/12 08:33:26;;;;;;;45.77;29.80;;;6.20;99.90;;;;;;5081643;28;20221;-63
2023/12/12 08:35:53;;;;;;;54.00;32.23;;;6.30;99.90;;;;;;5084694;28;20205;-63
2023/12/12 08:38:21;;;;;;;49.37;31.10;;;6.30;99.90;;;;;;5080800;28;20217;-63
2023/12/12 08:40:48;;;;;;;48.67;30.50;;;6.40;99.90;;;;;;5080793;28;20209;-63
2023/12/12 08:43:16;;;;;;;47.97;30.70;;;6.40;99.90;;;;;;5081986;28;20258;-64
2023/12/12 08:45:44;;;;;;;54.60;31.43;;;6.40;99.90;;;;;;5080387;28;20202;-63
2023/12/12 08:48:12;;;;;;;65.43;33.47;;;6.50;99.90;;;;;;5075594;28;20310;-64
2023/12/12 08:50:39;;;;;;;48.43;30.23;;;6.50;99.90;;;;;;5080242;28;20198;-63
2023/12/12 08:53:06;;;;;;;53.00;30.90;;;6.60;99.90;;;;;;5082038;28;20564;-63
2023/12/12 08:55:34;;;;;;;49.33;29.80;;;6.60;99.90;;;;;;5080580;28;20263;-63
2023/12/12 08:58:01;;;;;;;46.93;29.67;;;6.60;99.90;;;;;;5081185;28;20198;-63
2023/12/12 09:00:28;;;;;;;45.80;29.63;;;6.70;99.90;;;;;;5076952;28;20325;-65
2023/12/12 09:02:55;;;;;;;49.50;30.40;;;6.70;99.90;;;;;;5079936;28;20231;-63
2023/12/12 09:05:22;;;;;;;49.53;31.63;;;6.80;99.90;;;;;;5080225;28;20210;-63
2023/12/12 09:07:49;;;;;;;51.93;33.37;;;6.80;99.90;;;;;;5081105;28;20232;-64
2023/12/12 09:10:17;;;;;;;52.37;32.43;;;6.90;99.90;;;;;;5076963;28;20201;-63
2023/12/12 09:12:44;;;;;;;55.37;34.30;;;6.90;99.90;;;;;;5078265;28;20205;-63
2023/12/12 09:15:11;;;;;;;58.37;36.07;;;7.00;99.90;;;;;;5080898;28;20193;-64
2023/12/12 09:17:38;;;;;;;51.87;32.90;;;7.00;99.90;;;;;;5079509;28;20195;-63
2023/12/12 09:20:06;;;;;;;51.77;31.00;;;7.00;99.90;;;;;;5081145;28;20297;-63
2023/12/12 09:22:34;;;;;;;52.90;29.83;;;7.10;99.90;;;;;;5090403;28;20294;-63
2023/12/12 09:25:02;;;;;;;44.70;28.23;;;7.20;99.90;;;;;;5083535;28;20201;-63
2023/12/12 09:27:29;;;;;;;43.10;28.83;;;7.20;99.90;;;;;;5084909;28;20216;-64
2023/12/12 09:29:56;;;;;;;48.87;29.07;;;7.30;99.90;;;;;;5081849;28;20198;-63
2023/12/12 09:32:24;;;;;;;48.17;29.57;;;7.30;99.90;;;;;;5084562;28;20652;-63
2023/12/12 09:34:51;;;;;;;47.97;29.63;;;7.40;99.90;;;;;;5084149;28;20252;-63
2023/12/12 09:37:22;;;;;;;44.17;28.80;;;7.40;99.90;;;;;;5081639;28;20607;-63
2023/12/12 09:39:50;;;;;;;47.07;29.97;;;7.50;99.90;;;;;;5083733;28;20221;-63
2023/12/12 09:42:20;;;;;;;45.73;28.83;;;7.50;99.90;;;;;;5085557;28;20201;-63
2023/12/12 09:44:59;;;;;;;47.47;30.00;;;7.50;99.90;;;;;;5089554;28;20691;-63
2023/12/12 09:47:30;;;;;;;50.43;30.77;;;7.60;99.90;;;;;;5081706;28;20215;-63
2023/12/12 09:49:58;;;;;;;44.93;30.67;;;7.60;99.90;;;;;;5077937;28;20236;-62
2023/12/12 09:52:28;;;;;;;51.57;31.63;;;7.70;99.90;;;;;;5084399;28;20221;-63
2023/12/12 09:54:59;;;;;;;58.23;35.57;;;7.80;99.90;;;;;;5082936;28;20540;-63
2023/12/12 09:57:28;;;;;;;65.27;37.53;;;7.80;99.90;;;;;;5083382;28;20480;-64
2023/12/12 09:59:59;;;;;;;70.77;40.63;;;7.90;99.90;;;;;;5088184;28;20190;-64
2023/12/12 10:02:36;;;;;;;62.50;37.10;;;7.90;99.90;;;;;;5078201;28;20194;-63
2023/12/12 10:05:04;;;;;;;53.43;34.10;;;8.00;99.90;;;;;;5077127;28;20582;-63
2023/12/12 10:07:33;;;;;;;51.07;32.10;;;8.10;99.90;;;;;;5087981;28;20203;-63
2023/12/12 10:10:04;;;;;;;50.30;32.13;;;8.10;99.90;;;;;;5084047;28;20638;-64
2023/12/12 10:12:31;;;;;;;46.53;28.43;;;8.20;99.90;;;;;;5083271;28;20618;-64
2023/12/12 10:14:59;;;;;;;43.03;30.03;;;8.20;99.90;;;;;;5084673;28;20202;-64
2023/12/12 10:17:26;;;;;;;43.13;28.53;;;8.30;99.90;;;;;;5085648;28;20199;-63
2023/12/12 10:20:04;;;;;;;39.90;27.30;;;8.30;99.90;;;;;;5082973;28;20636;-63
2023/12/12 10:22:31;;;;;;;38.20;25.67;;;8.40;99.90;;;;;;5080121;28;20282;-64
2023/12/12 10:25:10;;;;;;;41.20;27.13;;;8.40;99.90;;;;;;5083440;28;20286;-64
2023/12/12 10:27:42;;;;;;;41.70;27.47;;;8.50;99.90;;;;;;5081759;28;20226;-63
2023/12/12 10:30:13;;;;;;;39.43;27.23;;;8.60;99.90;;;;;;5079912;28;20234;-64
2023/12/12 10:32:40;;;;;;;40.00;26.60;;;8.50;99.90;;;;;;5083308;28;20208;-67
2023/12/12 10:35:08;;;;;;;40.07;26.47;;;8.60;99.90;;;;;;5081722;28;20200;-66
2023/12/12 10:37:35;;;;;;;39.33;27.40;;;8.50;99.90;;;;;;5086611;28;20251;-67
2023/12/12 10:40:21;;;;;;;38.83;26.37;;;8.50;99.90;;;;;;5083651;28;20251;-65
2023/12/12 10:42:49;;;;;;;40.90;29.23;;;8.60;99.90;;;;;;5081170;28;20209;-64
2023/12/12 10:45:17;;;;;;;43.93;28.00;;;8.60;99.90;;;;;;5087486;28;20558;-66
2023/12/12 10:47:46;;;;;;;43.83;27.53;;;8.60;99.90;;;;;;5081873;28;20238;-65
2023/12/12 10:50:15;;;;;;;41.87;28.20;;;8.60;99.90;;;;;;5079108;28;20201;-66
2023/12/12 10:52:44;;;;;;;45.73;29.73;;;8.70;99.90;;;;;;5082444;28;20213;-67
2023/12/12 10:55:13;;;;;;;44.30;28.83;;;8.70;99.90;;;;;;5080461;28;21079;-65
2023/12/12 10:57:46;;;;;;;42.83;28.73;;;8.80;99.90;;;;;;5080668;28;20288;-65
2023/12/12 11:00:16;;;;;;;42.33;28.17;;;8.80;99.90;;;;;;5081648;28;20234;-65
2023/12/12 11:02:47;;;;;;;44.73;29.07;;;8.80;99.90;;;;;;5078949;28;20642;-65
2023/12/12 11:05:15;;;;;;;40.80;28.27;;;8.90;99.90;;;;;;5082582;28;20286;-65
2023/12/12 11:07:47;;;;;;;41.93;27.43;;;8.90;99.90;;;;;;5084352;28;20200;-66
2023/12/12 11:10:19;;;;;;;41.63;29.27;;;9.00;99.90;;;;;;5082509;28;20269;-65
2023/12/12 11:12:57;;;;;;;42.60;28.83;;;9.00;99.90;;;;;;5080728;28;20676;-66
2023/12/12 11:15:26;;;;;;;39.40;28.03;;;9.10;99.90;;;;;;5081980;28;20210;-65
2023/12/12 11:17:53;;;;;;;42.60;26.97;;;9.20;99.90;;;;;;5084724;28;20265;-66
2023/12/12 11:20:21;;;;;;;43.20;28.83;;;9.20;99.90;;;;;;5078030;28;20614;-66
2023/12/12 11:22:51;;;;;;;38.83;27.53;;;9.20;99.80;;;;;;5081185;28;20204;-64
2023/12/12 11:25:20;;;;;;;42.40;29.27;;;9.20;99.60;;;;;;5082059;28;20203;-65
2023/12/12 11:27:51;;;;;;;48.70;30.23;;;9.20;99.50;;;;;;5078808;28;20194;-66
2023/12/12 11:30:20;;;;;;;43.40;29.93;;;9.20;99.50;;;;;;5083307;28;20204;-65
2023/12/12 11:32:47;;;;;;;42.63;28.37;;;9.20;99.60;;;;;;5078206;28;20235;-65
2023/12/12 11:35:28;;;;;;;43.37;29.83;;;9.20;99.60;;;;;;5085568;28;20540;-64
2023/12/12 11:38:02;;;;;;;46.70;30.17;;;9.20;99.60;;;;;;5086217;28;20276;-64
2023/12/12 11:40:32;;;;;;;42.93;29.47;;;9.20;99.50;;;;;;5078027;28;20207;-66
2023/12/12 11:43:17;;;;;;;49.20;32.67;;;9.20;99.40;;;;;;5077722;28;20204;-65
2023/12/12 11:45:45;;;;;;;50.73;33.03;;;9.20;99.40;;;;;;5085889;28;20196;-65
2023/12/12 11:48:12;;;;;;;52.17;34.07;;;9.20;99.40;;;;;;5077993;28;20210;-65
2023/12/12 11:50:39;;;;;;;53.13;33.60;;;9.20;99.40;;;;;;5081322;28;20233;-65
2023/12/12 11:53:07;;;;;;;52.13;35.00;;;9.20;99.40;;;;;;5080876;28;20227;-65
2023/12/12 11:55:36;;;;;;;55.60;35.70;;;9.20;99.40;;;;;;5076744;28;20255;-65
2023/12/12 11:58:05;;;;;;;53.77;35.13;;;9.30;99.50;;;;;;5077038;28;20237;-64
2023/12/12 12:00:37;;;;;;;53.60;34.83;;;9.30;99.50;;;;;;5082132;28;20245;-64
2023/12/12 12:03:08;;;;;;;58.50;37.30;;;9.30;99.40;;;;;;5082872;28;20617;-64
2023/12/12 12:05:37;;;;;;;55.90;36.27;;;9.40;99.40;;;;;;5079695;28;20208;-65
2023/12/12 12:08:05;;;;;;;52.83;35.27;;;9.40;99.40;;;;;;5080567;28;20200;-66
2023/12/12 12:10:32;;;;;;;62.57;35.97;;;9.40;99.40;;;;;;5069517;28;20634;-64
2023/12/12 12:13:00;;;;;;;58.50;36.07;;;9.50;99.40;;;;;;5085911;28;20221;-65
2023/12/12 12:15:28;;;;;;;54.43;35.63;;;9.50;99.40;;;;;;5085353;28;20235;-64
2023/12/12 12:17:59;;;;;;;53.77;35.90;;;9.50;99.40;;;;;;5078375;28;20204;-65
2023/12/12 12:20:26;;;;;;;53.27;34.57;;;9.60;99.50;;;;;;5079652;28;20205;-65
2023/12/12 12:22:53;;;;;;;56.87;36.53;;;9.60;99.40;;;;;;5083228;28;20208;-64
2023/12/12 12:25:26;;;;;;;48.27;32.37;;;9.60;99.40;;;;;;5081166;28;20210;-64
2023/12/12 12:27:55;;;;;;;45.00;30.93;;;9.70;99.40;;;;;;5079116;28;20229;-65
2023/12/12 12:30:24;;;;;;;47.10;30.83;;;9.70;99.40;;;;;;5083788;28;20237;-64
2023/12/12 12:33:03;;;;;;;47.77;30.60;;;9.70;99.30;;;;;;5081451;28;20213;-63
2023/12/12 12:35:31;;;;;;;46.37;31.13;;;9.70;99.20;;;;;;5081949;28;20196;-64
2023/12/12 12:37:59;;;;;;;45.17;30.70;;;9.80;99.20;;;;;;5081938;28;20536;-64
2023/12/12 12:40:37;;;;;;;44.80;29.60;;;9.80;99.10;;;;;;5082763;28;20211;-64